createdAt,value
2019-02-18T00:00:41.737Z,5.94
2019-02-18T00:03:08.427Z,5.90
2019-02-18T00:05:35.708Z,5.95
2019-02-18T00:08:02.135Z,5.84
2019-02-18T00:10:29.435Z,5.78
2019-02-18T00:12:55.867Z,5.76
2019-02-18T00:15:22.342Z,5.77
2019-02-18T00:17:50.036Z,5.70
2019-02-18T00:20:16.277Z,5.71
2019-02-18T00:22:42.513Z,5.56
2019-02-18T00:25:09.072Z,5.32
2019-02-18T00:27:36.758Z,5.39
2019-02-18T00:30:03.935Z,5.37
2019-02-18T00:32:30.554Z,5.50
2019-02-18T00:34:57.519Z,5.43
2019-02-18T00:37:24.834Z,5.42
2019-02-18T00:39:51.672Z,5.41
2019-02-18T00:42:18.421Z,5.45
2019-02-18T00:44:45.121Z,5.45
2019-02-18T00:47:11.548Z,5.47
2019-02-18T00:49:38.482Z,5.47
2019-02-18T00:52:05.487Z,5.41
2019-02-18T00:54:31.929Z,5.40
2019-02-18T00:56:58.475Z,5.34
2019-02-18T00:59:24.946Z,5.31
2019-02-18T01:01:51.463Z,5.31
2019-02-18T01:04:19.196Z,5.23
2019-02-18T01:06:46.019Z,5.24
2019-02-18T01:09:12.556Z,5.21
2019-02-18T01:11:38.860Z,5.21
2019-02-18T01:14:06.110Z,5.20
2019-02-18T01:16:32.806Z,5.19
2019-02-18T01:18:59.437Z,5.13
2019-02-18T01:21:25.995Z,5.15
2019-02-18T01:23:52.593Z,5.11
2019-02-18T01:26:19.123Z,5.04
2019-02-18T01:28:45.692Z,5.04
2019-02-18T01:31:12.253Z,4.96
2019-02-18T01:33:38.751Z,4.95
2019-02-18T01:36:05.380Z,4.97
2019-02-18T01:38:31.952Z,4.94
2019-02-18T01:40:58.574Z,4.89
2019-02-18T01:43:25.260Z,4.89
2019-02-18T01:45:51.755Z,4.81
2019-02-18T01:48:18.249Z,4.76
2019-02-18T01:50:45.066Z,4.65
2019-02-18T01:53:15.056Z,4.59
2019-02-18T01:55:41.592Z,4.56
2019-02-18T01:58:08.243Z,4.51
2019-02-18T02:00:35.062Z,4.49
2019-02-18T02:03:01.792Z,4.48
2019-02-18T02:05:28.366Z,4.47
2019-02-18T02:07:56.584Z,4.45
2019-02-18T02:10:23.702Z,4.34
2019-02-18T02:12:50.897Z,4.41
2019-02-18T02:15:20.803Z,4.37
2019-02-18T02:17:47.228Z,4.32
2019-02-18T02:20:14.212Z,4.38
2019-02-18T02:22:40.808Z,4.41
2019-02-18T02:25:07.436Z,4.38
2019-02-18T02:27:33.896Z,4.34
2019-02-18T02:30:00.522Z,4.34
2019-02-18T02:32:27.072Z,4.36
2019-02-18T02:34:53.645Z,4.31
2019-02-18T02:37:20.080Z,4.26
2019-02-18T02:39:46.625Z,4.24
2019-02-18T02:42:13.188Z,4.24
2019-02-18T02:44:39.620Z,4.22
2019-02-18T02:47:06.128Z,4.23
2019-02-18T02:49:32.568Z,4.23
2019-02-18T02:55:10.309Z,4.18
2019-02-18T02:57:36.894Z,4.12
2019-02-18T03:00:11.195Z,4.09
2019-02-18T03:02:37.690Z,4.08
2019-02-18T03:05:04.293Z,4.03
2019-02-18T03:07:31.119Z,4.03
2019-02-18T03:09:59.507Z,3.94
2019-02-18T03:12:25.917Z,3.87
2019-02-18T03:14:52.935Z,3.89
2019-02-18T03:17:19.611Z,3.89
2019-02-18T03:19:47.114Z,3.85
2019-02-18T03:22:13.843Z,3.84
2019-02-18T03:25:01.094Z,3.78
2019-02-18T03:27:27.700Z,3.75
2019-02-18T03:30:10.656Z,3.71
2019-02-18T03:32:37.489Z,3.69
2019-02-18T03:35:11.561Z,3.61
2019-02-18T03:37:37.999Z,3.62
2019-02-18T03:40:04.938Z,3.60
2019-02-18T03:42:32.102Z,3.53
2019-02-18T03:44:58.639Z,3.59
2019-02-18T03:47:25.268Z,3.55
2019-02-18T03:49:52.002Z,3.46
2019-02-18T03:52:18.594Z,3.50
2019-02-18T03:54:44.872Z,3.41
2019-02-18T03:57:11.560Z,3.34
2019-02-18T03:59:38.044Z,3.32
2019-02-18T04:02:04.705Z,3.35
2019-02-18T04:04:31.486Z,3.26
2019-02-18T04:06:57.833Z,3.23
2019-02-18T04:09:24.327Z,3.13
2019-02-18T04:11:50.765Z,3.19
2019-02-18T04:14:17.303Z,3.16
2019-02-18T04:16:44.194Z,3.08
2019-02-18T04:19:10.544Z,3.00
2019-02-18T04:21:37.045Z,3.08
2019-02-18T04:24:03.386Z,3.01
2019-02-18T04:26:30.985Z,3.06
2019-02-18T04:28:57.546Z,3.13
2019-02-18T04:31:23.858Z,3.17
2019-02-18T04:33:50.488Z,3.30
2019-02-18T04:36:16.830Z,3.28
2019-02-18T04:38:53.604Z,3.15
2019-02-18T04:41:11.809Z,3.29
2019-02-18T04:43:38.374Z,3.49
2019-02-18T04:46:10.243Z,3.49
2019-02-18T04:48:40.428Z,3.42
2019-02-18T04:51:07.194Z,3.56
2019-02-18T04:53:33.807Z,3.59
2019-02-18T04:56:00.650Z,3.57
2019-02-18T04:58:27.178Z,3.52
2019-02-18T05:00:55.211Z,3.59
2019-02-18T05:03:21.709Z,3.53
2019-02-18T05:05:48.289Z,3.46
2019-02-18T05:08:16.566Z,3.50
2019-02-18T05:10:43.399Z,3.56
2019-02-18T05:13:09.764Z,3.55
2019-02-18T05:15:36.109Z,3.58
2019-02-18T05:18:02.418Z,3.57
2019-02-18T05:20:29.970Z,3.61
2019-02-18T05:22:57.015Z,3.59
2019-02-18T05:25:23.367Z,3.65
2019-02-18T05:27:50.005Z,3.54
2019-02-18T05:30:16.576Z,3.50
2019-02-18T05:32:43.272Z,3.43
2019-02-18T05:35:11.327Z,3.35
2019-02-18T05:37:38.039Z,3.35
2019-02-18T05:40:06.487Z,3.29
2019-02-18T05:42:32.976Z,3.35
2019-02-18T05:44:59.811Z,3.23
2019-02-18T05:47:26.714Z,3.29
2019-02-18T05:49:53.566Z,3.19
2019-02-18T05:52:19.793Z,3.06
2019-02-18T05:54:46.730Z,3.13
2019-02-18T05:57:13.753Z,3.05
2019-02-18T05:59:40.753Z,3.15
2019-02-18T06:02:07.426Z,3.04
2019-02-18T06:04:34.062Z,3.08
2019-02-18T06:07:00.539Z,3.09
2019-02-18T06:09:30.203Z,3.08
2019-02-18T06:11:55.444Z,3.11
2019-02-18T06:14:22.217Z,3.21
2019-02-18T06:16:48.611Z,3.11
2019-02-18T06:19:15.093Z,3.24
2019-02-18T06:21:41.778Z,3.10
2019-02-18T06:24:08.122Z,3.08
2019-02-18T06:26:34.668Z,3.05
2019-02-18T06:29:01.593Z,3.25
2019-02-18T06:31:27.857Z,3.21
2019-02-18T06:33:54.302Z,3.24
2019-02-18T06:36:20.721Z,3.24
2019-02-18T06:38:47.540Z,3.24
2019-02-18T06:41:13.864Z,3.38
2019-02-18T06:43:42.313Z,3.26
2019-02-18T06:46:16.655Z,3.21
2019-02-18T06:48:45.447Z,3.29
2019-02-18T06:51:11.839Z,3.31
2019-02-18T06:53:38.403Z,3.28
2019-02-18T06:56:04.854Z,3.34
2019-02-18T07:02:13.564Z,3.33
2019-02-18T07:04:41.843Z,3.18
2019-02-18T07:07:10.436Z,3.08
2019-02-18T07:09:50.737Z,3.24
2019-02-18T07:12:11.933Z,3.13
2019-02-18T07:14:38.378Z,3.11
2019-02-18T07:17:04.765Z,3.27
2019-02-18T07:19:31.187Z,3.23
2019-02-18T07:21:57.674Z,3.12
2019-02-18T07:26:56.167Z,3.26
2019-02-18T07:29:22.533Z,3.41
2019-02-18T07:31:49.144Z,3.53
2019-02-18T07:34:15.757Z,3.63
2019-02-18T07:36:42.141Z,3.64
2019-02-18T07:39:08.328Z,3.57
2019-02-18T07:41:34.954Z,3.73
2019-02-18T07:44:01.591Z,3.72
2019-02-18T07:46:28.278Z,3.87
2019-02-18T07:48:54.730Z,3.87
2019-02-18T07:51:21.231Z,3.90
2019-02-18T07:53:47.762Z,4.04
2019-02-18T07:56:14.347Z,4.30
2019-02-18T07:58:40.939Z,4.36
2019-02-18T08:01:07.810Z,4.45
2019-02-18T08:06:59.106Z,4.60
2019-02-18T08:09:25.904Z,4.78
2019-02-18T08:12:12.487Z,4.97
2019-02-18T08:14:45.931Z,5.03
2019-02-18T08:17:12.457Z,4.87
2019-02-18T08:19:52.202Z,4.80
2019-02-18T08:22:24.039Z,4.83
2019-02-18T08:24:50.722Z,5.04
2019-02-18T08:27:17.283Z,5.04
2019-02-18T08:29:43.926Z,5.12
2019-02-18T08:32:10.956Z,5.11
2019-02-18T08:34:37.769Z,5.17
2019-02-18T08:37:04.337Z,5.36
2019-02-18T08:39:31.229Z,5.48
2019-02-18T08:41:59.248Z,5.65
2019-02-18T08:44:26.379Z,5.69
2019-02-18T08:46:54.722Z,5.69
2019-02-18T08:49:21.477Z,5.77
2019-02-18T08:51:48.144Z,5.74
2019-02-18T08:54:14.726Z,5.72
2019-02-18T08:56:41.447Z,6.00
2019-02-18T08:59:08.283Z,6.16
2019-02-18T09:01:34.929Z,6.31
2019-02-18T09:04:01.645Z,6.37
2019-02-18T09:06:28.436Z,6.46
2019-02-18T09:08:55.299Z,6.68
2019-02-18T09:11:22.309Z,6.76
2019-02-18T09:13:49.280Z,6.98
2019-02-18T09:16:16.015Z,7.22
2019-02-18T09:18:42.781Z,7.40
2019-02-18T09:21:09.487Z,7.74
2019-02-18T09:23:40.832Z,7.88
2019-02-18T09:26:07.115Z,8.16
2019-02-18T09:28:34.139Z,8.44
2019-02-18T09:31:01.211Z,8.90
2019-02-18T09:33:27.899Z,9.04
2019-02-18T09:35:54.639Z,9.03
2019-02-18T09:38:24.846Z,9.50
2019-02-18T09:40:51.607Z,9.50
2019-02-18T09:43:18.537Z,9.69
2019-02-18T09:45:45.697Z,9.83
2019-02-18T09:48:13.014Z,9.78
2019-02-18T09:50:39.855Z,10.12
2019-02-18T09:53:06.554Z,10.37
2019-02-18T09:55:32.995Z,10.54
2019-02-18T09:57:59.394Z,10.20
2019-02-18T10:00:45.541Z,10.71
2019-02-18T10:03:18.627Z,11.03
2019-02-18T10:05:45.221Z,10.95
2019-02-18T10:08:11.714Z,11.15
2019-02-18T10:10:38.662Z,11.07
2019-02-18T10:13:05.874Z,11.11
2019-02-18T10:15:32.483Z,11.43
2019-02-18T10:17:59.141Z,11.40
2019-02-18T10:20:25.812Z,11.59
2019-02-18T10:22:52.637Z,11.60
2019-02-18T10:25:19.568Z,12.16
2019-02-18T10:27:46.121Z,11.79
2019-02-18T10:30:12.953Z,11.99
2019-02-18T10:32:39.937Z,12.17
2019-02-18T10:35:11.927Z,12.78
2019-02-18T10:37:38.871Z,13.19
2019-02-18T10:40:07.334Z,13.43
2019-02-18T10:42:34.279Z,13.81
2019-02-18T10:45:00.725Z,14.05
2019-02-18T10:47:27.351Z,14.30
2019-02-18T10:49:54.268Z,14.00
2019-02-18T10:52:22.623Z,13.71
2019-02-18T10:54:50.286Z,14.55
2019-02-18T10:57:16.983Z,14.79
2019-02-18T10:59:43.943Z,14.88
2019-02-18T11:02:11.165Z,14.94
2019-02-18T11:04:37.662Z,14.82
2019-02-18T11:07:04.379Z,15.17
2019-02-18T11:09:31.216Z,15.23
2019-02-18T11:11:57.974Z,15.13
2019-02-18T11:14:24.732Z,15.32
2019-02-18T11:16:51.892Z,15.47
2019-02-18T11:19:18.478Z,15.73
2019-02-18T11:21:45.629Z,15.72
2019-02-18T11:24:12.560Z,16.04
2019-02-18T11:26:39.401Z,15.57
2019-02-18T11:29:06.517Z,15.45
2019-02-18T11:31:34.922Z,15.11
2019-02-18T11:34:01.758Z,15.26
2019-02-18T11:36:28.705Z,14.39
2019-02-18T11:38:55.588Z,14.80
2019-02-18T11:41:27.309Z,15.22
2019-02-18T11:43:51.140Z,15.46
2019-02-18T11:46:18.382Z,15.33
2019-02-18T11:48:45.242Z,15.48
2019-02-18T11:51:11.955Z,15.67
2019-02-18T11:53:38.856Z,15.25
2019-02-18T11:56:05.771Z,15.26
2019-02-18T11:58:33.404Z,15.41
2019-02-18T12:01:01.290Z,15.13
2019-02-18T12:03:28.436Z,15.12
2019-02-18T12:05:55.340Z,15.03
2019-02-18T12:08:21.917Z,14.97
2019-02-18T12:10:48.977Z,14.92
2019-02-18T12:13:16.044Z,14.86
2019-02-18T12:15:42.795Z,15.14
2019-02-18T12:18:09.372Z,15.18
2019-02-18T12:20:36.655Z,15.15
2019-02-18T12:23:05.866Z,15.47
2019-02-18T12:25:32.777Z,15.15
2019-02-18T12:27:59.860Z,15.19
2019-02-18T12:30:26.857Z,15.28
2019-02-18T12:32:53.910Z,15.13
2019-02-18T12:35:30.211Z,14.91
2019-02-18T12:37:55.317Z,15.03
2019-02-18T12:40:18.837Z,14.75
2019-02-18T12:42:54.252Z,14.65
2019-02-18T12:45:21.141Z,14.49
2019-02-18T12:47:47.868Z,14.56
2019-02-18T12:50:14.950Z,14.69
2019-02-18T12:52:41.637Z,14.89
2019-02-18T12:55:09.275Z,14.93
2019-02-18T12:57:38.805Z,14.85
2019-02-18T13:00:08.717Z,14.81
2019-02-18T13:02:44.226Z,15.00
2019-02-18T13:05:08.810Z,15.00
2019-02-18T13:07:35.468Z,14.78
2019-02-18T13:10:05.286Z,14.79
2019-02-18T13:12:31.127Z,14.67
2019-02-18T13:14:58.165Z,14.59
2019-02-18T13:17:24.649Z,14.57
2019-02-18T13:19:51.270Z,14.55
2019-02-18T13:22:17.903Z,14.26
2019-02-18T13:24:44.707Z,14.20
2019-02-18T13:27:11.229Z,14.39
2019-02-18T13:29:37.844Z,14.33
2019-02-18T13:32:04.572Z,14.30
2019-02-18T13:34:31.984Z,14.40
2019-02-18T13:37:00.784Z,14.28
2019-02-18T13:39:28.963Z,14.40
2019-02-18T13:41:55.911Z,14.43
2019-02-18T13:44:22.445Z,14.37
2019-02-18T13:46:49.434Z,14.12
2019-02-18T13:49:16.330Z,14.17
2019-02-18T13:51:43.050Z,14.32
2019-02-18T13:54:09.974Z,14.30
2019-02-18T13:56:36.729Z,14.25
2019-02-18T13:59:03.367Z,14.07
2019-02-18T14:01:30.335Z,14.09
2019-02-18T14:03:56.846Z,13.91
2019-02-18T14:06:23.552Z,13.92
2019-02-18T14:08:50.320Z,13.88
2019-02-18T14:11:20.219Z,13.88
2019-02-18T14:13:50.057Z,13.86
2019-02-18T14:16:16.710Z,13.86
2019-02-18T14:18:43.638Z,13.85
2019-02-18T14:21:10.930Z,13.76
2019-02-18T14:23:37.430Z,13.73
2019-02-18T14:26:04.532Z,13.77
2019-02-18T14:28:31.063Z,13.71
2019-02-18T14:30:58.513Z,13.75
2019-02-18T14:33:24.930Z,13.76
2019-02-18T14:35:51.553Z,13.67
2019-02-18T14:38:18.231Z,13.65
2019-02-18T14:40:45.352Z,13.49
2019-02-18T14:43:12.090Z,13.59
2019-02-18T14:45:38.515Z,13.44
2019-02-18T14:48:06.998Z,13.49
2019-02-18T14:50:33.514Z,13.60
2019-02-18T14:53:00.237Z,13.56
2019-02-18T14:55:26.902Z,13.47
2019-02-18T14:57:53.389Z,13.43
2019-02-18T15:00:22.050Z,13.26
2019-02-18T15:02:51.463Z,13.25
2019-02-18T15:05:18.437Z,13.33
2019-02-18T15:07:45.376Z,13.16
2019-02-18T15:10:13.733Z,13.14
2019-02-18T15:12:40.494Z,13.02
2019-02-18T15:15:07.697Z,12.97
2019-02-18T15:17:34.566Z,13.09
2019-02-18T15:20:01.690Z,13.09
2019-02-18T15:22:28.408Z,13.11
2019-02-18T15:24:55.763Z,13.11
2019-02-18T15:27:22.490Z,13.14
2019-02-18T15:29:49.112Z,13.06
2019-02-18T15:32:15.575Z,13.08
2019-02-18T15:34:43.916Z,13.00
2019-02-18T15:37:10.701Z,13.07
2019-02-18T15:39:37.207Z,13.04
2019-02-18T15:42:04.293Z,12.94
2019-02-18T15:44:31.024Z,12.76
2019-02-18T15:46:57.780Z,12.67
2019-02-18T15:49:24.288Z,12.58
2019-02-18T15:51:50.886Z,12.58
2019-02-18T15:54:18.695Z,12.46
2019-02-18T15:56:45.380Z,12.38
2019-02-18T15:59:12.067Z,12.40
2019-02-18T16:01:39.212Z,12.34
2019-02-18T16:04:14.264Z,12.28
2019-02-18T16:06:42.838Z,12.21
2019-02-18T16:09:09.552Z,12.29
2019-02-18T16:11:38.748Z,12.22
2019-02-18T16:14:05.836Z,12.27
2019-02-18T16:16:32.954Z,12.18
2019-02-18T16:18:59.441Z,12.02
2019-02-18T16:21:26.273Z,12.00
2019-02-18T16:23:52.808Z,11.93
2019-02-18T16:26:19.269Z,11.87
2019-02-18T16:28:45.867Z,11.71
2019-02-18T16:31:12.662Z,11.76
2019-02-18T16:33:39.040Z,11.76
2019-02-18T16:36:05.487Z,11.69
2019-02-18T16:38:31.903Z,11.63
2019-02-18T16:40:58.428Z,11.64
2019-02-18T16:43:25.622Z,11.64
2019-02-18T16:45:52.112Z,11.57
2019-02-18T16:48:19.014Z,11.54
2019-02-18T16:50:45.320Z,11.48
2019-02-18T16:53:11.766Z,11.42
2019-02-18T16:55:38.120Z,11.29
2019-02-18T16:58:04.578Z,11.14
2019-02-18T17:03:54.107Z,11.07
2019-02-18T17:06:20.627Z,11.00
2019-02-18T17:08:47.035Z,10.96
2019-02-18T17:11:13.682Z,10.97
2019-02-18T17:13:40.184Z,10.89
2019-02-18T17:16:06.808Z,10.73
2019-02-18T17:18:33.646Z,10.67
2019-02-18T17:21:00.549Z,10.66
2019-02-18T17:23:27.616Z,10.58
2019-02-18T17:25:53.898Z,10.51
2019-02-18T17:28:20.164Z,10.46
2019-02-18T17:30:46.791Z,10.38
2019-02-18T17:33:13.251Z,10.37
2019-02-18T17:35:39.653Z,10.24
2019-02-18T17:38:06.751Z,10.18
2019-02-18T17:40:33.316Z,10.04
2019-02-18T17:42:59.913Z,9.91
2019-02-18T17:45:28.260Z,9.92
2019-02-18T17:47:54.997Z,9.71
2019-02-18T17:50:22.325Z,9.64
2019-02-18T17:52:48.904Z,9.64
2019-02-18T17:55:16.561Z,9.62
2019-02-18T17:57:42.901Z,9.69
2019-02-18T18:00:35.520Z,9.70
2019-02-18T18:03:08.584Z,9.65
2019-02-18T18:05:34.922Z,9.57
2019-02-18T18:08:01.731Z,9.54
2019-02-18T18:10:28.492Z,9.44
2019-02-18T18:12:55.079Z,9.34
2019-02-18T18:15:22.673Z,9.38
2019-02-18T18:17:49.023Z,9.47
2019-02-18T18:20:15.555Z,9.31
2019-02-18T18:22:42.131Z,9.25
2019-02-18T18:25:10.640Z,9.18
2019-02-18T18:27:37.254Z,9.03
2019-02-18T18:30:07.395Z,9.01
2019-02-18T18:32:34.111Z,9.00
2019-02-18T18:38:11.890Z,8.86
2019-02-18T18:40:38.469Z,8.82
2019-02-18T18:43:05.384Z,8.79
2019-02-18T18:45:32.969Z,8.73
2019-02-18T18:47:59.834Z,8.66
2019-02-18T18:50:26.597Z,8.65
2019-02-18T18:52:53.297Z,8.59
2019-02-18T18:55:20.081Z,8.61
2019-02-18T18:57:46.691Z,8.53
2019-02-18T19:00:23.314Z,8.50
2019-02-18T19:02:49.835Z,8.44
2019-02-18T19:05:16.765Z,8.34
2019-02-18T19:07:43.196Z,8.34
2019-02-18T19:10:10.053Z,8.28
2019-02-18T19:12:36.625Z,8.28
2019-02-18T19:15:05.705Z,8.28
2019-02-18T19:17:32.202Z,8.24
2019-02-18T19:20:01.487Z,8.29
2019-02-18T19:22:28.538Z,8.24
2019-02-18T19:24:55.283Z,8.20
2019-02-18T19:27:21.724Z,8.26
2019-02-18T19:29:48.014Z,8.29
2019-02-18T19:32:15.007Z,8.29
2019-02-18T19:34:41.426Z,8.42
2019-02-18T19:37:07.980Z,8.38
2019-02-18T19:39:34.658Z,8.58
2019-02-18T19:42:01.084Z,8.46
2019-02-18T19:44:27.490Z,8.43
2019-02-18T19:50:18.269Z,8.41
2019-02-18T19:52:44.792Z,8.34
2019-02-18T19:55:12.109Z,8.27
2019-02-18T19:57:38.541Z,8.24
2019-02-18T20:00:14.784Z,8.15
2019-02-18T20:02:41.195Z,8.17
2019-02-18T20:05:08.559Z,8.16
2019-02-18T20:07:34.808Z,8.20
2019-02-18T20:10:01.240Z,8.14
2019-02-18T20:12:53.929Z,8.22
2019-02-18T20:15:20.256Z,8.26
2019-02-18T20:17:46.563Z,8.16
2019-02-18T20:20:14.743Z,8.16
2019-02-18T20:22:41.340Z,8.01
2019-02-18T20:25:08.472Z,8.05
2019-02-18T20:27:35.154Z,8.04
2019-02-18T20:30:02.169Z,8.19
2019-02-18T20:32:28.608Z,8.04
2019-02-18T20:34:54.957Z,8.19
2019-02-18T20:37:21.717Z,8.09
2019-02-18T20:39:48.354Z,8.18
2019-02-18T20:42:14.629Z,8.04
2019-02-18T20:44:42.194Z,7.93
2019-02-18T20:47:08.981Z,8.05
2019-02-18T20:52:49.609Z,7.92
2019-02-18T20:55:16.559Z,7.98
2019-02-18T20:57:43.005Z,7.92
2019-02-18T21:00:13.852Z,8.03
2019-02-18T21:02:40.433Z,7.94
2019-02-18T21:05:06.971Z,7.87
2019-02-18T21:07:33.439Z,7.96
2019-02-18T21:09:59.749Z,7.92
2019-02-18T21:12:26.961Z,7.64
2019-02-18T21:14:53.565Z,7.74
2019-02-18T21:17:20.454Z,7.78
2019-02-18T21:19:46.907Z,7.56
2019-02-18T21:22:13.331Z,7.57
2019-02-18T21:24:39.847Z,7.31
2019-02-18T21:27:06.285Z,7.25
2019-02-18T21:29:32.968Z,7.01
2019-02-18T21:32:01.796Z,7.04
2019-02-18T21:34:28.371Z,6.97
2019-02-18T21:36:54.675Z,6.96
2019-02-18T21:39:21.052Z,6.96
2019-02-18T21:44:58.717Z,6.97
2019-02-18T21:47:25.296Z,6.94
2019-02-18T21:49:51.703Z,6.97
2019-02-18T21:52:18.221Z,6.84
2019-02-18T21:54:44.655Z,7.03
2019-02-18T21:57:11.382Z,6.96
2019-02-18T21:59:37.805Z,7.08
2019-02-18T22:02:04.588Z,7.16
2019-02-18T22:04:31.046Z,7.18
2019-02-18T22:06:57.526Z,7.10
2019-02-18T22:09:23.959Z,6.99
2019-02-18T22:15:02.219Z,6.78
2019-02-18T22:17:28.737Z,6.86
2019-02-18T22:19:54.924Z,6.99
2019-02-18T22:22:21.438Z,6.86
2019-02-18T22:24:49.334Z,6.73
2019-02-18T22:30:50.776Z,6.85
2019-02-18T22:33:17.294Z,6.96
2019-02-18T22:35:43.651Z,6.95
2019-02-18T22:38:10.081Z,6.90
2019-02-18T22:40:36.574Z,6.84
2019-02-18T22:43:02.799Z,6.94
2019-02-18T22:45:29.332Z,6.79
2019-02-18T22:47:56.200Z,6.74
2019-02-18T22:50:22.663Z,6.79
2019-02-18T22:52:49.375Z,6.76
2019-02-18T22:55:18.755Z,6.82
2019-02-18T22:57:45.184Z,6.82
2019-02-18T23:00:31.531Z,6.82
2019-02-18T23:02:57.934Z,6.76
2019-02-18T23:05:24.284Z,6.74
2019-02-18T23:07:50.735Z,6.75
2019-02-18T23:10:18.027Z,6.81
2019-02-18T23:12:44.390Z,6.64
2019-02-18T23:15:10.812Z,6.63
2019-02-18T23:17:37.410Z,6.68
2019-02-18T23:20:04.272Z,6.71
2019-02-18T23:22:31.064Z,6.66
2019-02-18T23:24:57.463Z,6.78
2019-02-18T23:27:24.023Z,6.78
2019-02-18T23:29:50.244Z,6.90
2019-02-18T23:32:16.602Z,6.86
2019-02-18T23:34:42.911Z,6.72
2019-02-18T23:37:09.266Z,6.72
2019-02-18T23:39:35.700Z,6.60
2019-02-18T23:42:02.222Z,6.64
2019-02-18T23:44:28.445Z,6.78
2019-02-18T23:46:54.849Z,6.73
2019-02-18T23:49:21.130Z,6.60
2019-02-18T23:51:47.466Z,6.66
2019-02-18T23:54:13.857Z,6.63
2019-02-18T23:56:40.439Z,6.59
2019-02-18T23:59:06.557Z,6.52
